sensor_id;sensor_type;location;lat;lon;timestamp;P1;durP1;ratioP1;P2;durP2;ratioP2
4674;SDS011;2351;50.812;12.872;2024-02-28T00:00:10;43.93;;;18.10;;
4674;SDS011;2351;50.812;12.872;2024-02-28T00:02:43;55.97;;;18.50;;
4674;SDS011;2351;50.812;12.872;2024-02-28T00:05:15;65.17;;;18.87;;
4674;SDS011;2351;50.812;12.872;2024-02-28T00:07:46;40.53;;;16.37;;
4674;SDS011;2351;50.812;12.872;2024-02-28T00:10:18;43.80;;;16.73;;
4674;SDS011;2351;50.812;12.872;2024-02-28T00:12:51;46.83;;;18.17;;
4674;SDS011;2351;50.812;12.872;2024-02-28T00:15:23;48.37;;;17.53;;
4674;SDS011;2351;50.812;12.872;2024-02-28T00:17:55;41.70;;;16.93;;
4674;SDS011;2351;50.812;12.872;2024-02-28T00:20:27;46.23;;;17.70;;
4674;SDS011;2351;50.812;12.872;2024-02-28T00:22:59;50.77;;;16.60;;
4674;SDS011;2351;50.812;12.872;2024-02-28T00:25:31;43.00;;;16.77;;
4674;SDS011;2351;50.812;12.872;2024-02-28T00:28:04;42.90;;;17.30;;
4674;SDS011;2351;50.812;12.872;2024-02-28T00:30:36;37.20;;;16.30;;
4674;SDS011;2351;50.812;12.872;2024-02-28T00:33:07;43.20;;;17.80;;
4674;SDS011;2351;50.812;12.872;2024-02-28T00:35:39;57.47;;;16.77;;
4674;SDS011;2351;50.812;12.872;2024-02-28T00:38:11;43.60;;;17.00;;
4674;SDS011;2351;50.812;12.872;2024-02-28T00:40:43;34.87;;;16.30;;
4674;SDS011;2351;50.812;12.872;2024-02-28T00:43:16;43.17;;;16.90;;
4674;SDS011;2351;50.812;12.872;2024-02-28T00:45:47;52.00;;;18.43;;
4674;SDS011;2351;50.812;12.872;2024-02-28T00:48:19;42.33;;;16.30;;
4674;SDS011;2351;50.812;12.872;2024-02-28T00:50:51;37.17;;;16.00;;
4674;SDS011;2351;50.812;12.872;2024-02-28T00:53:23;40.57;;;15.90;;
4674;SDS011;2351;50.812;12.872;2024-02-28T00:55:54;47.50;;;16.20;;
4674;SDS011;2351;50.812;12.872;2024-02-28T00:58:27;38.00;;;15.97;;
4674;SDS011;2351;50.812;12.872;2024-02-28T01:01:00;36.73;;;15.93;;
4674;SDS011;2351;50.812;12.872;2024-02-28T01:03:31;36.70;;;15.47;;
4674;SDS011;2351;50.812;12.872;2024-02-28T01:06:03;35.63;;;14.73;;
4674;SDS011;2351;50.812;12.872;2024-02-28T01:08:35;36.60;;;14.93;;
4674;SDS011;2351;50.812;12.872;2024-02-28T01:11:07;43.13;;;16.50;;
4674;SDS011;2351;50.812;12.872;2024-02-28T01:13:40;40.00;;;15.07;;
4674;SDS011;2351;50.812;12.872;2024-02-28T01:16:12;38.37;;;17.07;;
4674;SDS011;2351;50.812;12.872;2024-02-28T01:18:43;33.03;;;14.57;;
4674;SDS011;2351;50.812;12.872;2024-02-28T01:21:15;35.50;;;15.23;;
4674;SDS011;2351;50.812;12.872;2024-02-28T01:23:47;43.07;;;14.60;;
4674;SDS011;2351;50.812;12.872;2024-02-28T01:26:18;41.17;;;16.40;;
4674;SDS011;2351;50.812;12.872;2024-02-28T01:28:53;37.63;;;14.80;;
4674;SDS011;2351;50.812;12.872;2024-02-28T01:31:25;35.07;;;14.87;;
4674;SDS011;2351;50.812;12.872;2024-02-28T01:33:57;35.33;;;14.83;;
4674;SDS011;2351;50.812;12.872;2024-02-28T01:36:28;34.60;;;14.97;;
4674;SDS011;2351;50.812;12.872;2024-02-28T01:39:00;38.67;;;15.63;;
4674;SDS011;2351;50.812;12.872;2024-02-28T01:41:33;39.53;;;15.10;;
4674;SDS011;2351;50.812;12.872;2024-02-28T01:44:06;43.70;;;15.50;;
4674;SDS011;2351;50.812;12.872;2024-02-28T01:46:37;46.27;;;15.53;;
4674;SDS011;2351;50.812;12.872;2024-02-28T01:49:09;38.87;;;16.17;;
4674;SDS011;2351;50.812;12.872;2024-02-28T01:51:41;37.10;;;14.80;;
4674;SDS011;2351;50.812;12.872;2024-02-28T01:54:13;47.10;;;17.40;;
4674;SDS011;2351;50.812;12.872;2024-02-28T01:56:45;40.30;;;14.70;;
4674;SDS011;2351;50.812;12.872;2024-02-28T01:59:19;37.90;;;15.23;;
4674;SDS011;2351;50.812;12.872;2024-02-28T02:01:53;35.33;;;14.23;;
4674;SDS011;2351;50.812;12.872;2024-02-28T02:04:25;41.70;;;15.90;;
4674;SDS011;2351;50.812;12.872;2024-02-28T02:06:57;44.20;;;15.23;;
4674;SDS011;2351;50.812;12.872;2024-02-28T02:09:30;47.20;;;16.70;;
4674;SDS011;2351;50.812;12.872;2024-02-28T02:12:04;50.07;;;15.20;;
4674;SDS011;2351;50.812;12.872;2024-02-28T02:14:37;46.00;;;15.70;;
4674;SDS011;2351;50.812;12.872;2024-02-28T02:17:09;43.13;;;16.27;;
4674;SDS011;2351;50.812;12.872;2024-02-28T02:19:41;64.50;;;16.87;;
4674;SDS011;2351;50.812;12.872;2024-02-28T02:22:13;68.37;;;17.37;;
4674;SDS011;2351;50.812;12.872;2024-02-28T02:24:47;60.93;;;17.57;;
4674;SDS011;2351;50.812;12.872;2024-02-28T02:27:18;71.03;;;17.90;;
4674;SDS011;2351;50.812;12.872;2024-02-28T02:29:50;72.97;;;17.90;;
4674;SDS011;2351;50.812;12.872;2024-02-28T02:32:22;64.03;;;18.77;;
4674;SDS011;2351;50.812;12.872;2024-02-28T02:34:53;57.20;;;16.60;;
4674;SDS011;2351;50.812;12.872;2024-02-28T02:37:26;56.20;;;17.37;;
4674;SDS011;2351;50.812;12.872;2024-02-28T02:39:59;49.67;;;17.37;;
4674;SDS011;2351;50.812;12.872;2024-02-28T02:42:31;99.17;;;19.10;;
4674;SDS011;2351;50.812;12.872;2024-02-28T02:45:02;76.40;;;18.10;;
4674;SDS011;2351;50.812;12.872;2024-02-28T02:47:35;75.10;;;19.07;;
4674;SDS011;2351;50.812;12.872;2024-02-28T02:50:07;59.53;;;16.20;;
4674;SDS011;2351;50.812;12.872;2024-02-28T02:52:38;71.33;;;16.77;;
4674;SDS011;2351;50.812;12.872;2024-02-28T02:55:11;122.40;;;20.77;;
4674;SDS011;2351;50.812;12.872;2024-02-28T02:57:43;94.83;;;18.50;;
4674;SDS011;2351;50.812;12.872;2024-02-28T03:00:16;77.00;;;17.93;;
4674;SDS011;2351;50.812;12.872;2024-02-28T03:02:48;79.70;;;19.80;;
4674;SDS011;2351;50.812;12.872;2024-02-28T03:05:19;83.60;;;18.50;;
4674;SDS011;2351;50.812;12.872;2024-02-28T03:07:51;58.80;;;18.97;;
4674;SDS011;2351;50.812;12.872;2024-02-28T03:10:24;75.07;;;19.80;;
4674;SDS011;2351;50.812;12.872;2024-02-28T03:12:56;78.40;;;18.90;;
4674;SDS011;2351;50.812;12.872;2024-02-28T03:15:27;70.83;;;17.97;;
4674;SDS011;2351;50.812;12.872;2024-02-28T03:17:59;74.40;;;19.73;;
4674;SDS011;2351;50.812;12.872;2024-02-28T03:20:31;104.90;;;21.63;;
4674;SDS011;2351;50.812;12.872;2024-02-28T03:23:04;84.67;;;19.47;;
4674;SDS011;2351;50.812;12.872;2024-02-28T03:25:37;131.80;;;20.07;;
4674;SDS011;2351;50.812;12.872;2024-02-28T03:28:09;138.13;;;21.63;;
4674;SDS011;2351;50.812;12.872;2024-02-28T03:30:41;82.20;;;20.00;;
4674;SDS011;2351;50.812;12.872;2024-02-28T03:33:12;66.60;;;20.80;;
4674;SDS011;2351;50.812;12.872;2024-02-28T03:35:44;69.60;;;19.50;;
4674;SDS011;2351;50.812;12.872;2024-02-28T03:38:16;86.50;;;19.97;;
4674;SDS011;2351;50.812;12.872;2024-02-28T03:40:49;66.40;;;19.87;;
4674;SDS011;2351;50.812;12.872;2024-02-28T03:43:21;69.13;;;21.00;;
4674;SDS011;2351;50.812;12.872;2024-02-28T03:45:53;56.63;;;19.10;;
4674;SDS011;2351;50.812;12.872;2024-02-28T03:48:24;45.33;;;18.37;;
4674;SDS011;2351;50.812;12.872;2024-02-28T03:50:56;41.57;;;16.03;;
4674;SDS011;2351;50.812;12.872;2024-02-28T03:53:28;41.40;;;17.53;;
4674;SDS011;2351;50.812;12.872;2024-02-28T03:56:01;50.70;;;19.00;;
4674;SDS011;2351;50.812;12.872;2024-02-28T03:58:33;50.53;;;17.93;;
4674;SDS011;2351;50.812;12.872;2024-02-28T04:01:04;45.50;;;18.00;;
4674;SDS011;2351;50.812;12.872;2024-02-28T04:03:36;64.27;;;17.27;;
4674;SDS011;2351;50.812;12.872;2024-02-28T04:06:08;53.00;;;18.77;;
4674;SDS011;2351;50.812;12.872;2024-02-28T04:08:40;68.30;;;16.13;;
4674;SDS011;2351;50.812;12.872;2024-02-28T04:11:13;38.60;;;16.93;;
4674;SDS011;2351;50.812;12.872;2024-02-28T04:13:45;43.50;;;17.00;;
4674;SDS011;2351;50.812;12.872;2024-02-28T04:16:17;40.07;;;15.00;;
4674;SDS011;2351;50.812;12.872;2024-02-28T04:18:48;50.07;;;18.43;;
4674;SDS011;2351;50.812;12.872;2024-02-28T04:21:20;49.10;;;17.27;;
4674;SDS011;2351;50.812;12.872;2024-02-28T04:23:52;34.93;;;14.90;;
4674;SDS011;2351;50.812;12.872;2024-02-28T04:26:25;39.20;;;14.70;;
4674;SDS011;2351;50.812;12.872;2024-02-28T04:28:56;41.00;;;15.97;;
4674;SDS011;2351;50.812;12.872;2024-02-28T04:31:29;42.83;;;14.60;;
4674;SDS011;2351;50.812;12.872;2024-02-28T04:34:00;33.80;;;13.60;;
4674;SDS011;2351;50.812;12.872;2024-02-28T04:36:32;38.90;;;14.83;;
4674;SDS011;2351;50.812;12.872;2024-02-28T04:39:04;34.67;;;16.20;;
4674;SDS011;2351;50.812;12.872;2024-02-28T04:41:39;34.90;;;14.23;;
4674;SDS011;2351;50.812;12.872;2024-02-28T04:44:10;43.53;;;14.93;;
4674;SDS011;2351;50.812;12.872;2024-02-28T04:46:42;36.03;;;14.00;;
4674;SDS011;2351;50.812;12.872;2024-02-28T04:49:14;33.73;;;13.50;;
4674;SDS011;2351;50.812;12.872;2024-02-28T04:51:45;42.50;;;15.00;;
4674;SDS011;2351;50.812;12.872;2024-02-28T04:54:17;48.53;;;14.67;;
4674;SDS011;2351;50.812;12.872;2024-02-28T04:56:50;39.70;;;13.40;;
4674;SDS011;2351;50.812;12.872;2024-02-28T04:59:22;31.83;;;12.67;;
4674;SDS011;2351;50.812;12.872;2024-02-28T05:01:54;34.73;;;14.00;;
4674;SDS011;2351;50.812;12.872;2024-02-28T05:04:25;39.67;;;14.43;;
4674;SDS011;2351;50.812;12.872;2024-02-28T05:06:57;39.80;;;13.83;;
4674;SDS011;2351;50.812;12.872;2024-02-28T05:09:28;29.93;;;12.20;;
4674;SDS011;2351;50.812;12.872;2024-02-28T05:12:02;23.37;;;11.87;;
4674;SDS011;2351;50.812;12.872;2024-02-28T05:14:34;37.83;;;12.63;;
4674;SDS011;2351;50.812;12.872;2024-02-28T05:17:06;31.13;;;12.07;;
4674;SDS011;2351;50.812;12.872;2024-02-28T05:19:38;30.00;;;11.70;;
4674;SDS011;2351;50.812;12.872;2024-02-28T05:22:10;29.87;;;11.53;;
4674;SDS011;2351;50.812;12.872;2024-02-28T05:24:42;29.10;;;12.23;;
4674;SDS011;2351;50.812;12.872;2024-02-28T05:27:18;29.33;;;11.27;;
4674;SDS011;2351;50.812;12.872;2024-02-28T05:29:50;26.37;;;12.07;;
4674;SDS011;2351;50.812;12.872;2024-02-28T05:32:21;26.93;;;12.03;;
4674;SDS011;2351;50.812;12.872;2024-02-28T05:34:53;29.93;;;13.07;;
4674;SDS011;2351;50.812;12.872;2024-02-28T05:37:25;24.37;;;10.60;;
4674;SDS011;2351;50.812;12.872;2024-02-28T05:39:56;28.97;;;11.97;;
4674;SDS011;2351;50.812;12.872;2024-02-28T05:42:29;32.20;;;12.33;;
4674;SDS011;2351;50.812;12.872;2024-02-28T05:45:01;26.40;;;10.70;;
4674;SDS011;2351;50.812;12.872;2024-02-28T05:47:33;26.90;;;12.60;;
4674;SDS011;2351;50.812;12.872;2024-02-28T05:50:05;33.13;;;12.17;;
4674;SDS011;2351;50.812;12.872;2024-02-28T05:52:37;33.00;;;12.80;;
4674;SDS011;2351;50.812;12.872;2024-02-28T05:55:09;26.63;;;11.17;;
4674;SDS011;2351;50.812;12.872;2024-02-28T05:57:42;42.53;;;13.10;;
4674;SDS011;2351;50.812;12.872;2024-02-28T06:00:14;51.10;;;13.03;;
4674;SDS011;2351;50.812;12.872;2024-02-28T06:02:45;38.10;;;13.00;;
4674;SDS011;2351;50.812;12.872;2024-02-28T06:05:17;40.10;;;13.93;;
4674;SDS011;2351;50.812;12.872;2024-02-28T06:07:49;36.63;;;12.90;;
4674;SDS011;2351;50.812;12.872;2024-02-28T06:10:21;47.47;;;13.73;;
4674;SDS011;2351;50.812;12.872;2024-02-28T06:12:54;39.83;;;11.77;;
4674;SDS011;2351;50.812;12.872;2024-02-28T06:15:25;33.10;;;12.50;;
4674;SDS011;2351;50.812;12.872;2024-02-28T06:17:58;34.00;;;12.97;;
4674;SDS011;2351;50.812;12.872;2024-02-28T06:20:30;43.13;;;13.60;;
4674;SDS011;2351;50.812;12.872;2024-02-28T06:23:02;35.20;;;12.60;;
4674;SDS011;2351;50.812;12.872;2024-02-28T06:25:34;47.27;;;12.67;;
4674;SDS011;2351;50.812;12.872;2024-02-28T06:28:07;42.73;;;13.63;;
4674;SDS011;2351;50.812;12.872;2024-02-28T06:30:40;35.60;;;12.63;;
4674;SDS011;2351;50.812;12.872;2024-02-28T06:33:12;41.67;;;12.80;;
4674;SDS011;2351;50.812;12.872;2024-02-28T06:35:43;36.10;;;11.03;;
4674;SDS011;2351;50.812;12.872;2024-02-28T06:38:15;35.33;;;10.67;;
4674;SDS011;2351;50.812;12.872;2024-02-28T06:40:47;45.17;;;12.03;;
4674;SDS011;2351;50.812;12.872;2024-02-28T06:43:20;43.50;;;13.70;;
4674;SDS011;2351;50.812;12.872;2024-02-28T06:45:51;36.47;;;12.40;;
4674;SDS011;2351;50.812;12.872;2024-02-28T06:48:23;43.03;;;12.90;;
4674;SDS011;2351;50.812;12.872;2024-02-28T06:50:55;52.03;;;13.60;;
4674;SDS011;2351;50.812;12.872;2024-02-28T06:53:27;54.23;;;14.30;;
4674;SDS011;2351;50.812;12.872;2024-02-28T06:56:00;49.47;;;14.97;;
4674;SDS011;2351;50.812;12.872;2024-02-28T06:58:34;46.00;;;14.47;;
4674;SDS011;2351;50.812;12.872;2024-02-28T07:01:06;65.17;;;17.93;;
4674;SDS011;2351;50.812;12.872;2024-02-28T07:03:37;61.77;;;16.57;;
4674;SDS011;2351;50.812;12.872;2024-02-28T07:06:09;91.07;;;23.23;;
4674;SDS011;2351;50.812;12.872;2024-02-28T07:08:41;95.77;;;23.40;;
4674;SDS011;2351;50.812;12.872;2024-02-28T07:11:13;81.47;;;21.03;;
4674;SDS011;2351;50.812;12.872;2024-02-28T07:13:46;66.37;;;18.50;;
4674;SDS011;2351;50.812;12.872;2024-02-28T07:16:18;124.70;;;34.33;;
4674;SDS011;2351;50.812;12.872;2024-02-28T07:18:49;126.43;;;23.00;;
4674;SDS011;2351;50.812;12.872;2024-02-28T07:21:21;112.80;;;22.00;;
4674;SDS011;2351;50.812;12.872;2024-02-28T07:23:53;118.47;;;19.67;;
4674;SDS011;2351;50.812;12.872;2024-02-28T07:26:25;141.77;;;21.70;;
4674;SDS011;2351;50.812;12.872;2024-02-28T07:28:58;124.77;;;20.60;;
4674;SDS011;2351;50.812;12.872;2024-02-28T07:31:29;90.70;;;19.80;;
4674;SDS011;2351;50.812;12.872;2024-02-28T07:34:01;91.33;;;21.67;;
4674;SDS011;2351;50.812;12.872;2024-02-28T07:36:33;86.37;;;19.63;;
4674;SDS011;2351;50.812;12.872;2024-02-28T07:39:04;148.30;;;22.47;;
4674;SDS011;2351;50.812;12.872;2024-02-28T07:41:36;114.97;;;23.73;;
4674;SDS011;2351;50.812;12.872;2024-02-28T07:44:09;102.87;;;22.10;;
4674;SDS011;2351;50.812;12.872;2024-02-28T07:46:41;180.73;;;25.03;;
4674;SDS011;2351;50.812;12.872;2024-02-28T07:49:13;131.17;;;26.37;;
4674;SDS011;2351;50.812;12.872;2024-02-28T07:51:45;137.17;;;25.27;;
4674;SDS011;2351;50.812;12.872;2024-02-28T07:54:16;199.87;;;27.20;;
4674;SDS011;2351;50.812;12.872;2024-02-28T07:56:48;134.20;;;26.90;;
4674;SDS011;2351;50.812;12.872;2024-02-28T07:59:21;246.40;;;32.30;;
4674;SDS011;2351;50.812;12.872;2024-02-28T08:01:53;248.07;;;28.97;;
4674;SDS011;2351;50.812;12.872;2024-02-28T08:04:25;170.73;;;26.83;;
4674;SDS011;2351;50.812;12.872;2024-02-28T08:06:57;117.87;;;23.97;;
4674;SDS011;2351;50.812;12.872;2024-02-28T08:09:29;152.33;;;28.20;;
4674;SDS011;2351;50.812;12.872;2024-02-28T08:12:00;182.70;;;29.60;;
4674;SDS011;2351;50.812;12.872;2024-02-28T08:14:33;223.33;;;34.00;;
4674;SDS011;2351;50.812;12.872;2024-02-28T08:17:05;215.03;;;34.10;;
4674;SDS011;2351;50.812;12.872;2024-02-28T08:19:37;227.73;;;30.07;;
4674;SDS011;2351;50.812;12.872;2024-02-28T08:22:08;285.13;;;32.87;;
4674;SDS011;2351;50.812;12.872;2024-02-28T08:24:40;251.23;;;31.10;;
4674;SDS011;2351;50.812;12.872;2024-02-28T08:27:12;253.73;;;34.07;;
4674;SDS011;2351;50.812;12.872;2024-02-28T08:29:45;361.73;;;38.23;;
4674;SDS011;2351;50.812;12.872;2024-02-28T08:32:17;203.30;;;32.47;;
4674;SDS011;2351;50.812;12.872;2024-02-28T08:34:48;237.10;;;33.57;;
4674;SDS011;2351;50.812;12.872;2024-02-28T08:37:20;118.43;;;23.00;;
4674;SDS011;2351;50.812;12.872;2024-02-28T08:39:52;171.23;;;29.33;;
4674;SDS011;2351;50.812;12.872;2024-02-28T08:42:25;108.63;;;26.47;;
4674;SDS011;2351;50.812;12.872;2024-02-28T08:44:58;127.13;;;28.10;;
4674;SDS011;2351;50.812;12.872;2024-02-28T08:47:33;104.93;;;28.13;;
4674;SDS011;2351;50.812;12.872;2024-02-28T08:50:05;86.23;;;26.97;;
4674;SDS011;2351;50.812;12.872;2024-02-28T08:52:37;88.93;;;26.20;;
4674;SDS011;2351;50.812;12.872;2024-02-28T08:55:09;77.97;;;24.00;;
4674;SDS011;2351;50.812;12.872;2024-02-28T08:57:41;93.20;;;25.27;;
4674;SDS011;2351;50.812;12.872;2024-02-28T09:00:14;89.73;;;27.60;;
4674;SDS011;2351;50.812;12.872;2024-02-28T09:02:47;62.23;;;22.70;;
4674;SDS011;2351;50.812;12.872;2024-02-28T09:05:19;75.60;;;22.53;;
4674;SDS011;2351;50.812;12.872;2024-02-28T09:07:51;62.10;;;21.77;;
4674;SDS011;2351;50.812;12.872;2024-02-28T09:10:24;69.10;;;21.53;;
4674;SDS011;2351;50.812;12.872;2024-02-28T09:12:56;61.60;;;21.23;;
4674;SDS011;2351;50.812;12.872;2024-02-28T09:15:29;54.70;;;18.37;;
4674;SDS011;2351;50.812;12.872;2024-02-28T09:18:01;49.17;;;15.83;;
4674;SDS011;2351;50.812;12.872;2024-02-28T09:20:32;66.93;;;17.37;;
4674;SDS011;2351;50.812;12.872;2024-02-28T09:23:04;55.20;;;18.10;;
4674;SDS011;2351;50.812;12.872;2024-02-28T09:25:37;74.63;;;28.37;;
4674;SDS011;2351;50.812;12.872;2024-02-28T09:28:08;63.40;;;18.67;;
4674;SDS011;2351;50.812;12.872;2024-02-28T09:30:44;49.40;;;19.20;;
4674;SDS011;2351;50.812;12.872;2024-02-28T09:33:17;49.23;;;18.30;;
4674;SDS011;2351;50.812;12.872;2024-02-28T09:35:49;51.17;;;17.60;;
4674;SDS011;2351;50.812;12.872;2024-02-28T09:38:21;42.27;;;16.47;;
4674;SDS011;2351;50.812;12.872;2024-02-28T09:40:53;47.00;;;17.30;;
4674;SDS011;2351;50.812;12.872;2024-02-28T09:43:27;45.80;;;15.60;;
4674;SDS011;2351;50.812;12.872;2024-02-28T09:46:03;44.60;;;17.33;;
4674;SDS011;2351;50.812;12.872;2024-02-28T09:48:35;38.17;;;17.50;;
4674;SDS011;2351;50.812;12.872;2024-02-28T09:51:09;49.10;;;18.50;;
4674;SDS011;2351;50.812;12.872;2024-02-28T09:53:42;39.97;;;16.80;;
4674;SDS011;2351;50.812;12.872;2024-02-28T09:56:14;41.90;;;16.53;;
4674;SDS011;2351;50.812;12.872;2024-02-28T09:58:47;41.77;;;16.67;;
4674;SDS011;2351;50.812;12.872;2024-02-28T10:01:20;40.93;;;16.63;;
4674;SDS011;2351;50.812;12.872;2024-02-28T10:03:53;47.33;;;16.87;;
4674;SDS011;2351;50.812;12.872;2024-02-28T10:06:26;41.63;;;17.53;;
4674;SDS011;2351;50.812;12.872;2024-02-28T10:08:58;48.00;;;18.20;;
4674;SDS011;2351;50.812;12.872;2024-02-28T10:11:29;41.83;;;16.83;;
4674;SDS011;2351;50.812;12.872;2024-02-28T10:14:01;44.90;;;17.40;;
4674;SDS011;2351;50.812;12.872;2024-02-28T10:16:34;45.00;;;17.03;;
4674;SDS011;2351;50.812;12.872;2024-02-28T10:19:06;51.30;;;19.20;;
4674;SDS011;2351;50.812;12.872;2024-02-28T10:21:38;39.10;;;17.10;;
4674;SDS011;2351;50.812;12.872;2024-02-28T10:24:11;37.50;;;16.47;;
4674;SDS011;2351;50.812;12.872;2024-02-28T10:26:44;41.47;;;16.27;;
4674;SDS011;2351;50.812;12.872;2024-02-28T10:29:18;37.43;;;15.63;;
4674;SDS011;2351;50.812;12.872;2024-02-28T10:31:51;31.17;;;16.47;;
4674;SDS011;2351;50.812;12.872;2024-02-28T10:34:23;38.83;;;17.83;;
4674;SDS011;2351;50.812;12.872;2024-02-28T10:36:54;39.00;;;16.47;;
4674;SDS011;2351;50.812;12.872;2024-02-28T10:39:28;35.33;;;17.60;;
4674;SDS011;2351;50.812;12.872;2024-02-28T10:42:01;41.43;;;17.10;;
4674;SDS011;2351;50.812;12.872;2024-02-28T10:44:34;44.00;;;18.03;;
4674;SDS011;2351;50.812;12.872;2024-02-28T10:47:08;30.70;;;14.47;;
4674;SDS011;2351;50.812;12.872;2024-02-28T10:49:42;30.93;;;14.43;;
4674;SDS011;2351;50.812;12.872;2024-02-28T10:52:14;33.47;;;16.20;;
4674;SDS011;2351;50.812;12.872;2024-02-28T10:54:49;35.40;;;16.97;;
4674;SDS011;2351;50.812;12.872;2024-02-28T10:57:26;37.00;;;17.20;;
4674;SDS011;2351;50.812;12.872;2024-02-28T10:59:58;35.83;;;18.00;;
4674;SDS011;2351;50.812;12.872;2024-02-28T11:02:32;40.57;;;17.80;;
4674;SDS011;2351;50.812;12.872;2024-02-28T11:05:05;40.10;;;17.90;;
4674;SDS011;2351;50.812;12.872;2024-02-28T11:07:40;39.53;;;17.67;;
4674;SDS011;2351;50.812;12.872;2024-02-28T11:10:12;41.23;;;18.20;;
4674;SDS011;2351;50.812;12.872;2024-02-28T11:12:54;34.60;;;17.87;;
4674;SDS011;2351;50.812;12.872;2024-02-28T11:15:26;46.47;;;19.00;;
4674;SDS011;2351;50.812;12.872;2024-02-28T11:18:08;35.43;;;16.57;;
4674;SDS011;2351;50.812;12.872;2024-02-28T11:20:40;36.20;;;18.17;;
4674;SDS011;2351;50.812;12.872;2024-02-28T11:23:14;35.90;;;17.30;;
4674;SDS011;2351;50.812;12.872;2024-02-28T11:25:46;39.13;;;17.27;;
4674;SDS011;2351;50.812;12.872;2024-02-28T11:28:18;48.57;;;19.83;;
4674;SDS011;2351;50.812;12.872;2024-02-28T11:30:54;36.90;;;17.83;;
4674;SDS011;2351;50.812;12.872;2024-02-28T11:33:28;37.27;;;16.90;;
4674;SDS011;2351;50.812;12.872;2024-02-28T11:36:02;38.23;;;18.03;;
4674;SDS011;2351;50.812;12.872;2024-02-28T11:38:35;33.07;;;16.47;;
4674;SDS011;2351;50.812;12.872;2024-02-28T11:41:08;35.93;;;16.77;;
4674;SDS011;2351;50.812;12.872;2024-02-28T11:43:40;35.57;;;17.67;;
4674;SDS011;2351;50.812;12.872;2024-02-28T11:46:12;37.47;;;16.77;;
4674;SDS011;2351;50.812;12.872;2024-02-28T11:48:46;34.00;;;17.70;;
4674;SDS011;2351;50.812;12.872;2024-02-28T11:51:18;37.23;;;16.70;;
4674;SDS011;2351;50.812;12.872;2024-02-28T11:53:50;37.20;;;17.87;;
4674;SDS011;2351;50.812;12.872;2024-02-28T11:56:22;33.67;;;16.87;;
4674;SDS011;2351;50.812;12.872;2024-02-28T11:58:54;29.00;;;13.83;;
4674;SDS011;2351;50.812;12.872;2024-02-28T12:01:35;30.10;;;14.80;;
4674;SDS011;2351;50.812;12.872;2024-02-28T12:04:10;32.33;;;15.37;;
4674;SDS011;2351;50.812;12.872;2024-02-28T12:06:42;31.30;;;14.87;;
4674;SDS011;2351;50.812;12.872;2024-02-28T12:09:14;31.10;;;14.77;;
4674;SDS011;2351;50.812;12.872;2024-02-28T12:11:46;30.83;;;14.93;;
4674;SDS011;2351;50.812;12.872;2024-02-28T12:14:18;28.83;;;14.07;;
4674;SDS011;2351;50.812;12.872;2024-02-28T12:16:50;41.83;;;16.00;;
4674;SDS011;2351;50.812;12.872;2024-02-28T12:19:23;35.23;;;16.20;;
4674;SDS011;2351;50.812;12.872;2024-02-28T12:21:56;38.83;;;18.00;;
4674;SDS011;2351;50.812;12.872;2024-02-28T12:24:29;32.43;;;14.57;;
4674;SDS011;2351;50.812;12.872;2024-02-28T12:27:00;35.30;;;15.60;;
4674;SDS011;2351;50.812;12.872;2024-02-28T12:29:32;30.00;;;13.70;;
4674;SDS011;2351;50.812;12.872;2024-02-28T12:32:04;41.63;;;16.90;;
4674;SDS011;2351;50.812;12.872;2024-02-28T12:34:38;39.37;;;16.30;;
4674;SDS011;2351;50.812;12.872;2024-02-28T12:37:10;46.80;;;20.83;;
4674;SDS011;2351;50.812;12.872;2024-02-28T12:39:42;40.83;;;19.43;;
4674;SDS011;2351;50.812;12.872;2024-02-28T12:42:13;46.10;;;21.80;;
4674;SDS011;2351;50.812;12.872;2024-02-28T12:44:45;42.70;;;21.30;;
4674;SDS011;2351;50.812;12.872;2024-02-28T12:47:17;43.40;;;22.23;;
4674;SDS011;2351;50.812;12.872;2024-02-28T12:49:50;41.10;;;20.43;;
4674;SDS011;2351;50.812;12.872;2024-02-28T12:52:22;44.47;;;22.70;;
4674;SDS011;2351;50.812;12.872;2024-02-28T12:54:55;41.33;;;20.70;;
4674;SDS011;2351;50.812;12.872;2024-02-28T12:57:28;39.67;;;21.77;;
4674;SDS011;2351;50.812;12.872;2024-02-28T13:00:03;41.97;;;22.40;;
4674;SDS011;2351;50.812;12.872;2024-02-28T13:02:36;42.70;;;20.90;;
4674;SDS011;2351;50.812;12.872;2024-02-28T13:05:12;41.20;;;21.73;;
4674;SDS011;2351;50.812;12.872;2024-02-28T13:07:44;36.60;;;18.80;;
4674;SDS011;2351;50.812;12.872;2024-02-28T13:10:20;41.27;;;20.63;;
4674;SDS011;2351;50.812;12.872;2024-02-28T13:12:53;40.67;;;20.50;;
4674;SDS011;2351;50.812;12.872;2024-02-28T13:15:25;43.03;;;20.47;;
4674;SDS011;2351;50.812;12.872;2024-02-28T13:17:57;41.40;;;19.70;;
4674;SDS011;2351;50.812;12.872;2024-02-28T13:20:30;37.53;;;19.70;;
4674;SDS011;2351;50.812;12.872;2024-02-28T13:23:04;35.77;;;18.60;;
4674;SDS011;2351;50.812;12.872;2024-02-28T13:25:36;32.90;;;17.40;;
4674;SDS011;2351;50.812;12.872;2024-02-28T13:28:07;35.37;;;17.70;;
4674;SDS011;2351;50.812;12.872;2024-02-28T13:30:39;30.13;;;16.00;;
4674;SDS011;2351;50.812;12.872;2024-02-28T13:33:11;35.53;;;16.77;;
4674;SDS011;2351;50.812;12.872;2024-02-28T13:35:45;32.83;;;18.93;;
4674;SDS011;2351;50.812;12.872;2024-02-28T13:38:17;39.33;;;18.60;;
4674;SDS011;2351;50.812;12.872;2024-02-28T13:40:49;33.67;;;16.80;;
4674;SDS011;2351;50.812;12.872;2024-02-28T13:43:21;27.03;;;15.23;;
4674;SDS011;2351;50.812;12.872;2024-02-28T13:45:53;29.33;;;14.33;;
4674;SDS011;2351;50.812;12.872;2024-02-28T13:48:30;29.90;;;16.20;;
4674;SDS011;2351;50.812;12.872;2024-02-28T13:51:05;30.67;;;16.03;;
4674;SDS011;2351;50.812;12.872;2024-02-28T13:53:36;31.43;;;15.60;;
4674;SDS011;2351;50.812;12.872;2024-02-28T13:56:08;26.47;;;14.63;;
4674;SDS011;2351;50.812;12.872;2024-02-28T13:58:40;27.50;;;14.67;;
4674;SDS011;2351;50.812;12.872;2024-02-28T14:01:12;30.40;;;15.33;;
4674;SDS011;2351;50.812;12.872;2024-02-28T14:03:47;22.87;;;13.27;;
4674;SDS011;2351;50.812;12.872;2024-02-28T14:06:21;31.43;;;14.90;;
4674;SDS011;2351;50.812;12.872;2024-02-28T14:08:53;31.73;;;15.83;;
4674;SDS011;2351;50.812;12.872;2024-02-28T14:11:24;30.73;;;15.97;;
4674;SDS011;2351;50.812;12.872;2024-02-28T14:13:56;24.47;;;14.03;;
4674;SDS011;2351;50.812;12.872;2024-02-28T14:16:29;29.23;;;14.27;;
4674;SDS011;2351;50.812;12.872;2024-02-28T14:19:02;22.70;;;12.60;;
4674;SDS011;2351;50.812;12.872;2024-02-28T14:21:36;27.13;;;15.00;;
4674;SDS011;2351;50.812;12.872;2024-02-28T14:24:08;25.70;;;12.50;;
4674;SDS011;2351;50.812;12.872;2024-02-28T14:26:40;27.20;;;13.33;;
4674;SDS011;2351;50.812;12.872;2024-02-28T14:29:12;24.13;;;12.77;;
4674;SDS011;2351;50.812;12.872;2024-02-28T14:31:44;33.40;;;12.63;;
4674;SDS011;2351;50.812;12.872;2024-02-28T14:34:19;22.60;;;13.30;;
4674;SDS011;2351;50.812;12.872;2024-02-28T14:36:59;26.37;;;14.07;;
4674;SDS011;2351;50.812;12.872;2024-02-28T14:39:31;24.40;;;13.30;;
4674;SDS011;2351;50.812;12.872;2024-02-28T14:42:03;26.97;;;12.97;;
4674;SDS011;2351;50.812;12.872;2024-02-28T14:44:38;24.77;;;12.67;;
4674;SDS011;2351;50.812;12.872;2024-02-28T14:47:10;20.87;;;11.80;;
4674;SDS011;2351;50.812;12.872;2024-02-28T14:49:44;29.33;;;14.23;;
4674;SDS011;2351;50.812;12.872;2024-02-28T14:52:18;28.57;;;13.60;;
4674;SDS011;2351;50.812;12.872;2024-02-28T14:54:50;26.77;;;12.77;;
4674;SDS011;2351;50.812;12.872;2024-02-28T14:57:24;25.10;;;11.27;;
4674;SDS011;2351;50.812;12.872;2024-02-28T14:59:56;27.60;;;13.83;;
4674;SDS011;2351;50.812;12.872;2024-02-28T15:02:36;23.13;;;11.80;;